createdAt,value
2018-08-31T00:01:20.351Z,62.50
2018-08-31T00:04:56.346Z,63.00
2018-08-31T00:07:41.356Z,62.50
2018-08-31T00:12:48.203Z,62.80
2018-08-31T00:15:15.749Z,63.30
2018-08-31T00:17:44.023Z,63.00
2018-08-31T00:20:12.666Z,63.30
2018-08-31T00:22:40.220Z,63.10
2018-08-31T00:25:19.652Z,63.00
2018-08-31T00:27:58.535Z,63.40
2018-08-31T00:32:44.607Z,64.70
2018-08-31T00:37:39.306Z,65.10
2018-08-31T00:42:20.600Z,64.90
2018-08-31T00:45:36.232Z,64.10
2018-08-31T00:48:04.281Z,64.30
2018-08-31T00:50:32.223Z,64.10
2018-08-31T00:53:00.124Z,64.30
2018-08-31T00:55:27.842Z,63.70
2018-08-31T00:57:55.379Z,63.00
2018-08-31T01:00:22.836Z,61.80
2018-08-31T01:02:50.336Z,61.80
2018-08-31T01:05:18.362Z,62.10
2018-08-31T01:07:46.292Z,61.90
2018-08-31T01:10:13.971Z,62.50
2018-08-31T01:12:41.568Z,64.20
2018-08-31T01:15:10.337Z,64.80
2018-08-31T01:17:38.018Z,64.40
2018-08-31T01:20:06.351Z,63.90
2018-08-31T01:22:33.751Z,64.30
2018-08-31T01:25:01.216Z,65.00
2018-08-31T01:27:28.635Z,64.00
2018-08-31T01:29:56.181Z,64.50
2018-08-31T01:32:23.632Z,63.80
2018-08-31T01:34:51.053Z,63.50
2018-08-31T01:37:18.561Z,62.30
2018-08-31T01:39:46.174Z,61.70
2018-08-31T01:42:24.303Z,61.60
2018-08-31T01:44:51.981Z,61.70
2018-08-31T01:47:19.404Z,61.70
2018-08-31T01:49:48.075Z,60.80
2018-08-31T01:52:15.621Z,61.60
2018-08-31T01:54:43.039Z,61.10
2018-08-31T01:57:10.640Z,61.00
2018-08-31T01:59:38.234Z,61.30
2018-08-31T02:02:05.713Z,61.30
2018-08-31T02:04:33.233Z,61.30
2018-08-31T02:07:00.806Z,61.70
2018-08-31T02:09:28.278Z,61.60
2018-08-31T02:11:55.836Z,61.30
2018-08-31T02:14:23.330Z,61.90
2018-08-31T02:16:50.795Z,61.00
2018-08-31T02:19:18.308Z,61.20
2018-08-31T02:21:45.842Z,60.90
2018-08-31T02:24:13.351Z,60.80
2018-08-31T02:26:40.868Z,61.10
2018-08-31T02:29:08.445Z,61.60
2018-08-31T02:31:35.891Z,61.60
2018-08-31T02:34:03.341Z,61.70
2018-08-31T02:36:30.843Z,60.60
2018-08-31T02:38:58.337Z,61.60
2018-08-31T02:41:25.785Z,61.40
2018-08-31T02:43:53.314Z,61.30
2018-08-31T02:46:22.008Z,61.70
2018-08-31T02:48:50.416Z,62.60
2018-08-31T02:51:17.945Z,63.00
2018-08-31T02:53:45.492Z,63.40
2018-08-31T02:56:13.506Z,63.80
2018-08-31T02:58:41.389Z,63.80
2018-08-31T03:01:09.049Z,64.30
2018-08-31T03:03:36.793Z,64.30
2018-08-31T03:06:04.526Z,64.70
2018-08-31T03:08:32.036Z,65.00
2018-08-31T03:10:59.863Z,65.20
2018-08-31T03:13:27.425Z,65.50
2018-08-31T03:15:54.998Z,65.00
2018-08-31T03:18:22.504Z,65.70
2018-08-31T03:20:50.048Z,65.70
2018-08-31T03:23:17.608Z,65.40
2018-08-31T03:25:44.989Z,66.00
2018-08-31T03:28:12.411Z,65.60
2018-08-31T03:30:39.872Z,66.10
2018-08-31T03:33:07.546Z,65.80
2018-08-31T03:35:35.017Z,65.80
2018-08-31T03:38:02.472Z,65.90
2018-08-31T03:40:29.943Z,66.50
2018-08-31T03:42:57.310Z,66.30
2018-08-31T03:45:24.758Z,66.40
2018-08-31T03:47:52.247Z,65.70
2018-08-31T03:50:19.778Z,65.00
2018-08-31T03:52:47.214Z,64.50
2018-08-31T03:55:14.811Z,65.00
2018-08-31T03:57:42.373Z,64.20
2018-08-31T04:00:10.568Z,63.60
2018-08-31T04:02:38.152Z,63.30
2018-08-31T04:05:05.919Z,62.90
2018-08-31T04:07:33.364Z,62.10
2018-08-31T04:10:00.909Z,61.50
2018-08-31T04:12:28.388Z,61.90
2018-08-31T04:14:55.819Z,61.80
2018-08-31T04:17:23.393Z,61.90
2018-08-31T04:19:50.847Z,61.40
2018-08-31T04:22:20.276Z,61.40
2018-08-31T04:24:47.736Z,61.70
2018-08-31T04:27:15.137Z,62.00
2018-08-31T04:29:42.570Z,61.60
2018-08-31T04:32:09.992Z,62.50
2018-08-31T04:34:44.996Z,62.10
2018-08-31T04:37:24.457Z,61.60
2018-08-31T04:42:25.682Z,62.20
2018-08-31T04:44:57.246Z,62.20
2018-08-31T04:47:25.007Z,62.40
2018-08-31T04:49:52.485Z,62.20
2018-08-31T04:52:20.212Z,62.60
2018-08-31T04:54:48.227Z,62.10
2018-08-31T04:57:15.834Z,62.70
2018-08-31T04:59:43.347Z,63.10
2018-08-31T05:02:10.814Z,63.20
2018-08-31T05:04:38.312Z,62.80
2018-08-31T05:07:05.847Z,62.90
2018-08-31T05:09:37.315Z,63.00
2018-08-31T05:12:05.114Z,63.00
2018-08-31T05:14:32.669Z,62.60
2018-08-31T05:17:00.168Z,62.30
2018-08-31T05:19:27.598Z,62.30
2018-08-31T05:21:54.973Z,62.20
2018-08-31T05:24:22.629Z,62.70
2018-08-31T05:26:50.059Z,63.00
2018-08-31T05:29:17.688Z,63.20
2018-08-31T05:31:45.090Z,63.50
2018-08-31T05:34:12.860Z,63.70
2018-08-31T05:36:40.336Z,63.40
2018-08-31T05:39:09.898Z,63.30
2018-08-31T05:41:37.397Z,63.60
2018-08-31T05:46:39.327Z,64.10
2018-08-31T05:49:08.037Z,64.50
2018-08-31T05:51:35.479Z,64.70
2018-08-31T05:54:03.051Z,64.50
2018-08-31T05:56:30.476Z,65.10
2018-08-31T05:58:57.918Z,65.40
2018-08-31T06:01:25.655Z,65.20
2018-08-31T06:03:53.880Z,65.40
2018-08-31T06:06:21.337Z,65.40
2018-08-31T06:08:49.122Z,65.50
2018-08-31T06:11:16.670Z,65.70
2018-08-31T06:13:44.236Z,66.00
2018-08-31T06:16:13.117Z,65.60
2018-08-31T06:18:40.616Z,65.90
2018-08-31T06:21:08.142Z,65.80
2018-08-31T06:23:35.686Z,66.30
2018-08-31T06:26:03.228Z,66.10
2018-08-31T06:28:30.764Z,66.20
2018-08-31T06:30:58.197Z,66.20
2018-08-31T06:33:25.687Z,65.70
2018-08-31T06:35:53.201Z,65.10
2018-08-31T06:38:20.622Z,65.60
2018-08-31T06:40:48.117Z,66.00
2018-08-31T06:43:19.417Z,65.70
2018-08-31T06:45:47.652Z,65.70
2018-08-31T06:48:15.225Z,65.80
2018-08-31T06:50:42.744Z,66.10
2018-08-31T06:53:10.329Z,66.40
2018-08-31T06:55:39.617Z,66.30
2018-08-31T06:58:07.114Z,66.30
2018-08-31T07:03:27.982Z,66.30
2018-08-31T07:05:55.546Z,66.60
2018-08-31T07:08:29.428Z,66.40
2018-08-31T07:13:58.368Z,66.70
2018-08-31T07:16:29.459Z,66.30
2018-08-31T07:19:17.492Z,67.00
2018-08-31T07:21:50.243Z,67.10
2018-08-31T07:24:20.400Z,66.30
2018-08-31T07:26:48.323Z,66.10
2018-08-31T07:29:18.978Z,66.10
2018-08-31T07:37:42.885Z,66.00
2018-08-31T07:40:10.817Z,66.30
2018-08-31T07:42:58.465Z,65.40
2018-08-31T07:45:25.929Z,65.90
2018-08-31T07:47:53.680Z,66.00
2018-08-31T07:50:21.004Z,65.80
2018-08-31T07:52:54.413Z,66.20
2018-08-31T07:55:21.876Z,66.30
2018-08-31T08:00:45.707Z,66.30
2018-08-31T08:03:13.155Z,66.00
2018-08-31T08:05:40.827Z,66.00
2018-08-31T08:08:08.164Z,66.10
2018-08-31T08:10:35.710Z,66.10
2018-08-31T08:13:03.190Z,66.10
2018-08-31T08:15:30.614Z,66.10
2018-08-31T08:17:58.061Z,66.10
2018-08-31T08:20:25.615Z,66.20
2018-08-31T08:22:53.283Z,65.70
2018-08-31T08:25:21.074Z,65.90
2018-08-31T08:27:48.727Z,65.90
2018-08-31T08:30:16.778Z,66.90
2018-08-31T08:32:44.259Z,66.30
2018-08-31T08:35:11.775Z,66.30
2018-08-31T08:37:39.113Z,66.00
2018-08-31T08:40:06.727Z,65.90
2018-08-31T08:42:34.223Z,65.10
2018-08-31T08:45:01.711Z,65.20
2018-08-31T08:47:29.361Z,65.20
2018-08-31T08:49:56.782Z,65.00
2018-08-31T08:52:24.469Z,64.40
2018-08-31T08:54:51.915Z,64.70
2018-08-31T08:57:19.353Z,65.00
2018-08-31T08:59:46.764Z,65.60
2018-08-31T09:02:14.163Z,66.00
2018-08-31T09:04:41.704Z,65.70
2018-08-31T09:07:11.155Z,65.90
2018-08-31T09:09:39.768Z,65.50
2018-08-31T09:12:07.353Z,65.50
2018-08-31T09:14:34.815Z,66.00
2018-08-31T09:17:02.398Z,65.30
2018-08-31T09:19:29.908Z,66.20
2018-08-31T09:21:57.459Z,66.30
2018-08-31T09:24:24.912Z,65.80
2018-08-31T09:26:52.402Z,65.30
2018-08-31T09:29:19.993Z,65.40
2018-08-31T09:31:47.794Z,65.60
2018-08-31T09:34:15.289Z,65.00
2018-08-31T09:36:43.568Z,65.50
2018-08-31T09:39:11.884Z,65.20
2018-08-31T09:41:39.328Z,65.20
2018-08-31T09:44:06.827Z,65.40
2018-08-31T09:46:34.232Z,65.50
2018-08-31T09:49:02.056Z,65.00
2018-08-31T09:51:29.522Z,64.70
2018-08-31T09:53:56.992Z,64.40
2018-08-31T09:56:24.519Z,63.90
2018-08-31T09:58:52.021Z,63.80
2018-08-31T10:01:25.176Z,64.00
2018-08-31T10:03:52.668Z,63.80
2018-08-31T10:06:20.099Z,63.40
2018-08-31T10:08:47.823Z,63.30
2018-08-31T10:11:15.280Z,63.30
2018-08-31T10:13:42.741Z,63.20
2018-08-31T10:16:10.310Z,62.70
2018-08-31T10:18:37.773Z,62.80
2018-08-31T10:21:06.090Z,62.70
2018-08-31T10:23:33.607Z,62.70
2018-08-31T10:26:01.073Z,62.40
2018-08-31T10:28:28.708Z,61.60
2018-08-31T10:30:56.219Z,62.20
2018-08-31T10:33:24.116Z,62.40
2018-08-31T10:35:51.545Z,62.30
2018-08-31T10:38:19.383Z,62.40
2018-08-31T10:40:46.852Z,62.20
2018-08-31T10:43:14.465Z,61.70
2018-08-31T10:45:42.018Z,61.80
2018-08-31T10:48:09.598Z,62.00
2018-08-31T10:50:36.975Z,62.20
2018-08-31T10:53:04.482Z,62.40
2018-08-31T10:55:32.758Z,62.30
2018-08-31T10:58:00.155Z,61.90
2018-08-31T11:00:27.594Z,62.30
2018-08-31T11:02:55.111Z,61.80
2018-08-31T11:05:22.566Z,61.30
2018-08-31T11:07:49.995Z,60.90
2018-08-31T11:10:17.457Z,60.00
2018-08-31T11:12:44.948Z,60.10
2018-08-31T11:15:12.398Z,60.70
2018-08-31T11:17:39.720Z,60.20
2018-08-31T11:20:07.221Z,60.80
2018-08-31T11:22:34.704Z,60.10
2018-08-31T11:25:02.345Z,59.80
2018-08-31T11:27:29.873Z,59.80
2018-08-31T11:29:57.572Z,59.80
2018-08-31T11:32:25.335Z,59.80
2018-08-31T11:34:52.791Z,59.20
2018-08-31T11:37:20.234Z,58.90
2018-08-31T11:39:47.781Z,58.30
2018-08-31T11:42:15.164Z,58.20
2018-08-31T11:44:42.629Z,57.80
2018-08-31T11:47:10.044Z,58.00
2018-08-31T11:49:37.455Z,58.00
2018-08-31T11:52:04.923Z,58.00
2018-08-31T11:54:32.354Z,58.10
2018-08-31T11:56:59.785Z,58.20
2018-08-31T11:59:27.348Z,58.00
2018-08-31T12:01:54.838Z,57.60
2018-08-31T12:04:22.268Z,57.60
2018-08-31T12:06:49.919Z,57.50
2018-08-31T12:09:17.406Z,56.80
2018-08-31T12:11:44.900Z,56.90
2018-08-31T12:14:12.366Z,56.80
2018-08-31T12:16:39.757Z,57.10
2018-08-31T12:19:07.212Z,57.40
2018-08-31T12:21:34.648Z,57.20
2018-08-31T12:24:02.152Z,57.00
2018-08-31T12:26:29.673Z,56.90
2018-08-31T12:28:57.080Z,56.00
2018-08-31T12:31:24.559Z,55.40
2018-08-31T12:33:51.897Z,55.40
2018-08-31T12:36:19.371Z,55.50
2018-08-31T12:38:46.805Z,55.10
2018-08-31T12:41:14.247Z,54.80
2018-08-31T12:43:41.861Z,54.60
2018-08-31T12:46:09.255Z,54.70
2018-08-31T12:48:36.650Z,54.70
2018-08-31T12:51:04.065Z,54.70
2018-08-31T12:53:31.443Z,54.80
2018-08-31T12:55:58.965Z,54.90
2018-08-31T12:58:26.431Z,54.70
2018-08-31T13:00:53.757Z,55.60
2018-08-31T13:03:21.208Z,55.10
2018-08-31T13:05:48.748Z,55.20
2018-08-31T13:08:16.290Z,54.80
2018-08-31T13:10:43.670Z,54.80
2018-08-31T13:13:11.148Z,55.20
2018-08-31T13:15:38.561Z,55.00
2018-08-31T13:18:05.925Z,54.30
2018-08-31T13:20:33.493Z,54.00
2018-08-31T13:23:01.047Z,54.10
2018-08-31T13:25:28.417Z,54.20
2018-08-31T13:27:55.889Z,54.90
2018-08-31T13:30:23.432Z,53.80
2018-08-31T13:32:50.949Z,53.90
2018-08-31T13:35:18.381Z,53.70
2018-08-31T13:37:45.968Z,53.10
2018-08-31T13:40:13.417Z,52.80
2018-08-31T13:42:40.913Z,52.90
2018-08-31T13:45:08.338Z,53.20
2018-08-31T13:47:35.790Z,53.10
2018-08-31T13:50:03.349Z,53.10
2018-08-31T13:52:30.911Z,52.90
2018-08-31T13:54:58.402Z,52.50
2018-08-31T13:57:25.841Z,52.10
2018-08-31T13:59:53.384Z,52.10
2018-08-31T14:02:20.791Z,52.00
2018-08-31T14:04:48.232Z,52.30
2018-08-31T14:07:15.757Z,52.30
2018-08-31T14:09:43.271Z,52.20
2018-08-31T14:12:10.811Z,51.60
2018-08-31T14:14:38.356Z,51.00
2018-08-31T14:17:05.915Z,52.00
2018-08-31T14:19:33.345Z,52.30
2018-08-31T14:22:00.798Z,52.60
2018-08-31T14:24:28.339Z,52.20
2018-08-31T14:26:55.830Z,52.30
2018-08-31T14:29:23.292Z,51.70
2018-08-31T14:31:50.772Z,52.20
2018-08-31T14:34:18.292Z,52.40
2018-08-31T14:36:45.709Z,52.90
2018-08-31T14:39:13.354Z,52.30
2018-08-31T14:41:40.904Z,52.20
2018-08-31T14:44:08.712Z,52.20
2018-08-31T14:46:36.284Z,51.10
2018-08-31T14:49:04.231Z,50.90
2018-08-31T14:51:31.681Z,50.90
2018-08-31T14:53:59.109Z,50.70
2018-08-31T14:56:26.617Z,50.90
2018-08-31T14:58:54.033Z,51.30
2018-08-31T15:01:21.416Z,51.20
2018-08-31T15:03:48.871Z,50.80
2018-08-31T15:06:16.316Z,51.00
2018-08-31T15:08:43.902Z,50.70
2018-08-31T15:11:12.113Z,50.50
2018-08-31T15:13:39.680Z,50.70
2018-08-31T15:16:07.096Z,51.20
2018-08-31T15:18:39.693Z,51.30
2018-08-31T15:21:07.162Z,50.90
2018-08-31T15:23:34.760Z,50.30
2018-08-31T15:26:02.213Z,49.40
2018-08-31T15:28:29.737Z,48.80
2018-08-31T15:30:57.343Z,48.50
2018-08-31T15:33:24.886Z,48.50
2018-08-31T15:35:52.409Z,48.40
2018-08-31T15:38:19.956Z,48.80
2018-08-31T15:40:47.537Z,49.80
2018-08-31T15:43:15.097Z,50.30
2018-08-31T15:45:42.578Z,50.50
2018-08-31T15:48:10.092Z,53.70
2018-08-31T15:50:37.774Z,55.90
2018-08-31T15:53:05.288Z,57.00
2018-08-31T15:55:32.746Z,58.20
2018-08-31T15:58:00.268Z,59.00
2018-08-31T16:00:27.774Z,60.00
2018-08-31T16:02:55.269Z,60.80
2018-08-31T16:05:22.784Z,61.60
2018-08-31T16:07:50.335Z,62.00
2018-08-31T16:10:17.789Z,62.80
2018-08-31T16:12:45.179Z,62.20
2018-08-31T16:15:12.681Z,62.70
2018-08-31T16:17:40.220Z,62.50
2018-08-31T16:20:07.831Z,62.50
2018-08-31T16:22:35.238Z,63.40
2018-08-31T16:25:02.752Z,63.60
2018-08-31T16:27:30.295Z,63.00
2018-08-31T16:29:57.774Z,63.20
2018-08-31T16:32:26.437Z,63.90
2018-08-31T16:34:53.940Z,64.80
2018-08-31T16:37:21.388Z,64.80
2018-08-31T16:39:48.765Z,64.60
2018-08-31T16:42:16.328Z,64.70
2018-08-31T16:44:43.731Z,65.30
2018-08-31T16:47:11.203Z,65.90
2018-08-31T16:49:38.656Z,66.90
2018-08-31T16:52:06.175Z,67.90
2018-08-31T16:54:33.677Z,68.30
2018-08-31T16:57:01.220Z,68.40
2018-08-31T16:59:28.740Z,68.60
2018-08-31T17:01:56.173Z,69.10
2018-08-31T17:04:23.639Z,69.70
2018-08-31T17:06:51.137Z,70.10
2018-08-31T17:09:18.562Z,70.90
2018-08-31T17:11:46.096Z,71.20
2018-08-31T17:14:13.615Z,71.50
2018-08-31T17:16:41.124Z,71.60
2018-08-31T17:19:08.571Z,71.60
2018-08-31T17:21:36.039Z,71.90
2018-08-31T17:24:03.570Z,72.20
2018-08-31T17:26:36.639Z,72.90
2018-08-31T17:29:09.769Z,73.30
2018-08-31T17:31:42.977Z,74.20
2018-08-31T17:34:16.223Z,74.60
2018-08-31T17:36:49.362Z,74.80
2018-08-31T17:39:16.928Z,75.00
2018-08-31T17:41:44.424Z,75.10
2018-08-31T17:44:11.956Z,75.30
2018-08-31T17:46:39.594Z,75.90
2018-08-31T17:49:07.112Z,76.50
2018-08-31T17:51:34.579Z,76.80
2018-08-31T17:54:02.101Z,76.50
2018-08-31T17:56:29.664Z,76.10
2018-08-31T17:58:56.989Z,76.30
2018-08-31T18:01:24.617Z,76.50
2018-08-31T18:03:52.217Z,76.80
2018-08-31T18:06:19.739Z,77.40
2018-08-31T18:08:47.149Z,77.80
2018-08-31T18:11:14.674Z,77.50
2018-08-31T18:13:42.132Z,76.90
2018-08-31T18:16:09.620Z,76.90
2018-08-31T18:18:37.109Z,77.10
2018-08-31T18:21:04.869Z,77.40
2018-08-31T18:23:32.394Z,77.60
2018-08-31T18:26:00.019Z,77.40
2018-08-31T18:28:27.573Z,78.40
2018-08-31T18:31:05.897Z,78.40
2018-08-31T18:33:38.239Z,77.50
2018-08-31T18:36:06.372Z,77.10
2018-08-31T18:38:33.829Z,77.00
2018-08-31T18:41:06.676Z,77.50
2018-08-31T18:43:37.241Z,77.80
2018-08-31T18:46:18.271Z,77.50
2018-08-31T18:48:51.552Z,77.30
2018-08-31T18:51:19.309Z,77.60
2018-08-31T18:53:46.858Z,77.90
2018-08-31T18:56:14.400Z,78.00
2018-08-31T18:58:49.911Z,78.00
2018-08-31T19:01:17.729Z,77.80
2018-08-31T19:03:45.379Z,78.50
2018-08-31T19:06:12.915Z,78.60
2018-08-31T19:08:40.369Z,79.90
2018-08-31T19:11:08.666Z,79.70
2018-08-31T19:16:37.683Z,80.30
2018-08-31T19:19:05.191Z,79.70
2018-08-31T19:21:32.667Z,79.80
2018-08-31T19:24:00.093Z,80.20
2018-08-31T19:26:28.013Z,80.40
2018-08-31T19:34:51.026Z,81.20
2018-08-31T19:37:18.646Z,82.70
2018-08-31T19:40:04.253Z,83.00
2018-08-31T19:42:32.586Z,82.70
2018-08-31T19:45:00.304Z,83.60
2018-08-31T19:47:27.850Z,83.60
2018-08-31T19:50:18.707Z,82.70
2018-08-31T19:55:49.102Z,83.30
2018-08-31T20:04:59.780Z,82.60
2018-08-31T20:07:27.337Z,82.90
2018-08-31T20:10:14.218Z,82.90
2018-08-31T20:13:04.236Z,83.10
2018-08-31T20:15:32.098Z,83.30
2018-08-31T20:18:00.241Z,84.10
2018-08-31T20:20:28.112Z,84.40
2018-08-31T20:22:55.689Z,84.80
2018-08-31T20:25:23.763Z,84.90
2018-08-31T20:27:51.309Z,85.10
2018-08-31T20:30:18.835Z,85.30
2018-08-31T20:32:46.521Z,85.80
2018-08-31T20:35:14.359Z,85.70
2018-08-31T20:37:41.900Z,85.40
2018-08-31T20:40:10.805Z,85.40
2018-08-31T20:42:46.073Z,86.10
2018-08-31T20:45:13.550Z,86.30
2018-08-31T20:47:41.087Z,86.40
2018-08-31T20:50:25.080Z,86.70
2018-08-31T20:52:52.591Z,86.90
2018-08-31T21:01:06.939Z,87.10
2018-08-31T21:03:48.730Z,88.00
2018-08-31T21:06:17.031Z,87.50
2018-08-31T21:08:44.567Z,87.70
2018-08-31T21:11:12.152Z,87.90
2018-08-31T21:13:39.640Z,86.90
2018-08-31T21:18:43.432Z,86.80
2018-08-31T21:24:07.156Z,86.80
2018-08-31T21:26:34.652Z,86.70
2018-08-31T21:29:02.239Z,86.50
2018-08-31T21:31:30.154Z,86.90
2018-08-31T21:33:57.593Z,86.60
2018-08-31T21:36:25.456Z,86.90
2018-08-31T21:38:53.879Z,87.50
2018-08-31T21:41:21.493Z,88.80
2018-08-31T21:43:49.001Z,88.50
2018-08-31T21:46:16.598Z,89.30
2018-08-31T21:48:44.095Z,89.80
2018-08-31T21:51:12.228Z,89.40
2018-08-31T21:53:39.734Z,89.60
2018-08-31T21:56:07.200Z,89.50
2018-08-31T21:58:34.787Z,89.80
2018-08-31T22:01:07.985Z,90.00
2018-08-31T22:03:35.422Z,90.10
2018-08-31T22:06:03.084Z,90.10
2018-08-31T22:08:30.566Z,90.00
2018-08-31T22:10:58.126Z,90.00
2018-08-31T22:13:25.637Z,89.80
2018-08-31T22:15:53.189Z,89.10
2018-08-31T22:18:20.648Z,89.20
2018-08-31T22:20:48.160Z,89.50
2018-08-31T22:23:16.660Z,89.80
2018-08-31T22:25:44.840Z,90.00
2018-08-31T22:28:12.477Z,89.90
2018-08-31T22:30:40.046Z,90.00
2018-08-31T22:33:07.513Z,90.60
2018-08-31T22:35:35.039Z,91.00
2018-08-31T22:38:02.559Z,91.20
2018-08-31T22:40:30.117Z,90.60
2018-08-31T22:42:57.678Z,90.40
2018-08-31T22:45:26.814Z,90.40
2018-08-31T22:47:54.266Z,90.30
2018-08-31T22:50:21.952Z,90.40
2018-08-31T22:52:49.551Z,90.50
2018-08-31T22:55:17.177Z,91.10
2018-08-31T22:57:44.811Z,91.40
2018-08-31T23:00:12.354Z,91.40
2018-08-31T23:02:39.832Z,91.60
2018-08-31T23:05:07.416Z,91.40
2018-08-31T23:07:40.501Z,91.30
2018-08-31T23:10:08.030Z,90.70
2018-08-31T23:12:35.561Z,91.20
2018-08-31T23:15:03.192Z,91.00
2018-08-31T23:17:30.755Z,90.70
2018-08-31T23:19:58.889Z,91.00
2018-08-31T23:22:27.332Z,90.50
2018-08-31T23:24:58.500Z,90.20
2018-08-31T23:27:26.485Z,90.00
2018-08-31T23:29:54.124Z,90.00
2018-08-31T23:32:21.832Z,90.20
2018-08-31T23:34:49.308Z,90.20
2018-08-31T23:37:16.809Z,90.40
2018-08-31T23:39:44.374Z,90.70
2018-08-31T23:42:11.797Z,91.00
2018-08-31T23:44:39.260Z,90.80
2018-08-31T23:47:06.775Z,90.50
2018-08-31T23:49:34.272Z,90.40
2018-08-31T23:52:01.738Z,90.20
2018-08-31T23:54:29.291Z,90.40
2018-08-31T23:56:56.719Z,90.70
2018-08-31T23:59:24.264Z,91.00
